Augsburg, Illinois
Current Conditions -  °F | °C
As of 9:55 AM on Friday 28 Nov 2014 (Local Time) from KENL Reporting Station
Clear Clear  
Wind Chill: 23°   Ceiling: Unl
Heat Index: 33°   Visibility: 10mi
Dew Point: 27°   Wind: 14mph
Humidity: 77%   Direction: 170°S
Pressure: 30.24"   Gusts: 20mph
Location:  38.8463°N, 89.0894°W
Report Text: KENL 281555Z AUTO 17012G17KT 10SM CLR 01/M03 A3024 RMK AO2 T00061030
Loading
Personal Weather Stations






























Interactive Weather Map New forecast layout! Learn more

10-Day Weather Forecast

Advertisements
Track Severe Weather on mobile